Time;durP1;ratioP1;P1;durP2;ratioP2;P2;SDS_P1;SDS_P2;PMS_P1;PMS_P2;Temp;Humidity;BMP_temperature;BMP_pressure;BME280_temperature;BME280_humidity;BME280_pressure;Samples;Min_cycle;Max_cycle;Signal;HPM_P1;HPM_P2
2022/12/06 00:02:10;;;;;;;2.38;1.63;;;18.80;49.40;;;;;;5051054;28;20041;-41
2022/12/06 00:04:36;;;;;;;1.80;1.50;;;18.80;49.40;;;;;;5051318;28;20405;-43
2022/12/06 00:07:03;;;;;;;2.17;1.63;;;18.70;49.40;;;;;;5051276;28;20573;-44
2022/12/06 00:09:31;;;;;;;2.33;1.77;;;18.70;49.40;;;;;;5051629;28;20052;-44
2022/12/06 00:11:57;;;;;;;2.45;1.67;;;18.70;49.50;;;;;;5051403;28;20053;-44
2022/12/06 00:14:25;;;;;;;2.20;1.63;;;18.70;49.50;;;;;;5051092;28;20053;-44
2022/12/06 00:16:51;;;;;;;1.80;1.50;;;18.60;49.50;;;;;;5050804;28;20073;-44
2022/12/06 00:19:20;;;;;;;2.13;1.60;;;18.60;49.50;;;;;;5051380;28;20590;-44
2022/12/06 00:21:47;;;;;;;2.45;1.50;;;18.60;49.50;;;;;;5051262;28;20049;-44
2022/12/06 00:24:15;;;;;;;2.05;1.50;;;18.60;49.60;;;;;;5051172;28;20136;-44
2022/12/06 00:26:43;;;;;;;1.67;1.40;;;18.60;49.60;;;;;;5051189;28;20051;-44
2022/12/06 00:29:11;;;;;;;2.33;1.55;;;18.60;49.60;;;;;;5054668;28;20511;-44
2022/12/06 00:31:38;;;;;;;1.60;1.50;;;18.50;49.60;;;;;;5055233;28;20057;-44
2022/12/06 00:34:05;;;;;;;1.85;1.40;;;18.50;49.70;;;;;;5054607;28;20140;-44
2022/12/06 00:36:34;;;;;;;2.67;1.40;;;18.50;49.70;;;;;;5055252;28;20076;-43
2022/12/06 00:39:01;;;;;;;2.42;1.60;;;18.50;49.70;;;;;;5054740;28;20055;-43
2022/12/06 00:41:27;;;;;;;2.17;1.63;;;18.40;49.70;;;;;;5054962;28;20056;-43
2022/12/06 00:43:54;;;;;;;1.70;1.48;;;18.40;49.70;;;;;;5054283;28;20053;-44
2022/12/06 00:46:22;;;;;;;1.92;1.40;;;18.40;49.80;;;;;;5055017;28;20049;-44
2022/12/06 00:48:49;;;;;;;2.28;1.50;;;18.40;49.80;;;;;;5054670;28;20053;-44
2022/12/06 00:51:16;;;;;;;2.53;1.50;;;18.40;49.90;;;;;;5054747;28;20059;-41
2022/12/06 00:53:44;;;;;;;1.55;1.25;;;18.40;49.90;;;;;;5054001;28;20063;-44
2022/12/06 00:56:11;;;;;;;1.95;1.40;;;18.40;49.90;;;;;;5054865;28;20049;-44
2022/12/06 00:58:38;;;;;;;1.77;1.33;;;18.40;49.90;;;;;;5054221;28;20436;-43
2022/12/06 01:01:09;;;;;;;1.88;1.38;;;18.30;49.90;;;;;;5054466;28;20052;-44
2022/12/06 01:03:35;;;;;;;2.47;1.33;;;18.30;49.90;;;;;;5054024;28;20405;-44
2022/12/06 01:06:03;;;;;;;2.10;1.30;;;18.30;50.00;;;;;;5053257;28;20053;-43
2022/12/06 01:08:30;;;;;;;1.77;1.33;;;18.30;50.00;;;;;;5054359;28;20076;-44
2022/12/06 01:10:58;;;;;;;1.48;1.20;;;18.30;50.00;;;;;;5054443;28;20367;-44
2022/12/06 01:13:25;;;;;;;1.33;1.20;;;18.20;50.00;;;;;;5069464;28;20048;-44
2022/12/06 01:15:53;;;;;;;2.25;1.23;;;18.20;50.60;;;;;;5054114;28;20512;-43
2022/12/06 01:18:19;;;;;;;1.92;1.30;;;18.20;50.10;;;;;;5054176;28;20052;-44
2022/12/06 01:20:46;;;;;;;1.90;1.30;;;18.20;50.10;;;;;;5054100;28;20045;-44
2022/12/06 01:23:13;;;;;;;1.80;1.27;;;18.20;50.10;;;;;;5054012;28;20071;-44
2022/12/06 01:25:40;;;;;;;1.70;1.35;;;18.20;50.10;;;;;;5053916;28;20057;-44
2022/12/06 01:28:08;;;;;;;1.35;1.10;;;18.10;50.10;;;;;;5053747;28;20154;-44
2022/12/06 01:30:34;;;;;;;1.65;1.20;;;18.20;50.10;;;;;;5054175;28;20135;-44
2022/12/06 01:33:01;;;;;;;2.95;1.30;;;18.10;50.10;;;;;;5053591;28;20052;-43
2022/12/06 01:35:28;;;;;;;1.15;1.05;;;18.10;50.10;;;;;;5054141;28;20127;-43
2022/12/06 01:37:54;;;;;;;2.10;1.30;;;18.10;50.20;;;;;;5054207;28;20081;-43
2022/12/06 01:40:21;;;;;;;1.98;1.25;;;18.10;50.20;;;;;;5052364;28;20083;-42
2022/12/06 01:42:48;;;;;;;1.60;1.17;;;18.10;50.20;;;;;;5053476;28;20051;-44
2022/12/06 01:45:16;;;;;;;1.80;1.08;;;18.00;50.20;;;;;;5053914;28;20048;-44
2022/12/06 01:47:43;;;;;;;2.20;1.27;;;18.00;50.20;;;;;;5053879;28;20053;-43
2022/12/06 01:50:11;;;;;;;2.63;1.40;;;18.00;50.30;;;;;;5053690;28;20136;-43
2022/12/06 01:52:39;;;;;;;2.33;1.13;;;18.00;50.30;;;;;;5053107;28;20051;-44
2022/12/06 01:55:07;;;;;;;2.08;1.15;;;18.00;50.30;;;;;;5053783;28;20049;-44
2022/12/06 01:57:33;;;;;;;1.30;1.17;;;18.00;50.30;;;;;;5053233;28;20600;-44
2022/12/06 02:00:00;;;;;;;2.28;1.10;;;18.00;50.40;;;;;;5053745;28;20059;-44
2022/12/06 02:02:28;;;;;;;1.70;1.17;;;18.00;50.40;;;;;;5053181;28;20049;-44
2022/12/06 02:04:55;;;;;;;2.55;1.33;;;18.00;50.40;;;;;;5053046;28;20520;-44
2022/12/06 02:07:22;;;;;;;1.77;1.20;;;17.90;50.40;;;;;;5053648;28;20059;-44
2022/12/06 02:09:49;;;;;;;1.52;1.10;;;17.90;50.40;;;;;;5051683;28;20080;-44
2022/12/06 02:12:15;;;;;;;2.28;1.27;;;17.90;50.40;;;;;;5053191;28;20131;-44
2022/12/06 02:14:42;;;;;;;1.30;1.10;;;17.90;50.40;;;;;;5052682;28;20520;-43
2022/12/06 02:17:15;;;;;;;1.95;1.13;;;17.90;50.40;;;;;;5053222;28;20059;-44
2022/12/06 02:20:06;;;;;;;1.63;1.08;;;17.90;50.40;;;;;;5052726;28;20528;-43
2022/12/06 02:22:43;;;;;;;1.70;1.13;;;17.80;50.40;;;;;;5052804;28;20127;-43
2022/12/06 02:25:24;;;;;;;1.73;1.17;;;17.80;50.50;;;;;;5051598;28;20123;-44
2022/12/06 02:27:58;;;;;;;1.20;1.00;;;17.80;50.50;;;;;;5052930;28;20044;-44
2022/12/06 02:30:38;;;;;;;1.92;1.02;;;17.80;50.50;;;;;;5052707;28;20049;-43
2022/12/06 02:33:06;;;;;;;1.20;1.00;;;17.80;50.50;;;;;;5052932;28;20433;-44
2022/12/06 02:35:34;;;;;;;1.10;1.00;;;17.80;50.60;;;;;;5052650;28;20049;-43
2022/12/06 02:38:04;;;;;;;1.33;1.13;;;17.80;50.60;;;;;;5052638;28;20045;-44
2022/12/06 02:40:32;;;;;;;1.65;1.10;;;17.80;50.60;;;;;;5052621;28;20049;-43
2022/12/06 02:43:01;;;;;;;2.38;1.30;;;17.70;50.60;;;;;;5052498;28;20053;-43
2022/12/06 02:45:28;;;;;;;1.10;1.00;;;17.70;50.60;;;;;;5052586;28;20055;-42
2022/12/06 02:47:57;;;;;;;1.35;1.00;;;17.70;50.60;;;;;;5052470;28;20136;-43
2022/12/06 02:50:26;;;;;;;1.27;0.90;;;17.70;50.60;;;;;;5052654;28;20055;-43
2022/12/06 02:52:53;;;;;;;0.82;0.80;;;17.70;50.60;;;;;;5052203;28;20504;-42
2022/12/06 02:55:21;;;;;;;1.17;1.08;;;17.70;50.60;;;;;;5051921;28;20551;-43
2022/12/06 02:57:49;;;;;;;1.13;1.00;;;17.60;50.60;;;;;;5052162;28;20132;-43
2022/12/06 03:00:41;;;;;;;3.15;1.00;;;17.60;50.70;;;;;;5052638;28;20150;-43
2022/12/06 03:03:37;;;;;;;1.92;1.10;;;17.60;50.70;;;;;;5041745;28;20049;-43
2022/12/06 03:06:20;;;;;;;2.42;1.10;;;17.60;50.70;;;;;;5050826;28;20685;-44
2022/12/06 03:08:51;;;;;;;1.73;1.10;;;17.60;50.80;;;;;;5052088;28;20059;-43
2022/12/06 03:11:18;;;;;;;1.85;1.13;;;17.50;50.70;;;;;;5052175;28;20047;-43
2022/12/06 03:13:50;;;;;;;1.08;0.90;;;17.50;50.70;;;;;;5051884;28;20047;-43
2022/12/06 03:16:18;;;;;;;1.63;1.00;;;17.50;50.70;;;;;;5052373;28;20051;-43
2022/12/06 03:18:48;;;;;;;1.02;0.90;;;17.50;50.70;;;;;;5052154;28;20412;-43
2022/12/06 03:21:17;;;;;;;1.15;0.90;;;17.50;50.70;;;;;;5051664;28;20056;-44
2022/12/06 03:23:45;;;;;;;1.08;0.98;;;17.50;50.80;;;;;;5051340;28;20049;-44
2022/12/06 03:26:14;;;;;;;1.88;1.02;;;17.50;50.80;;;;;;5051816;28;20542;-44
2022/12/06 03:28:41;;;;;;;1.38;0.80;;;17.50;50.90;;;;;;5052175;28;20056;-44
2022/12/06 03:31:09;;;;;;;1.00;0.90;;;17.50;50.90;;;;;;5051761;28;20049;-44
2022/12/06 03:33:37;;;;;;;2.08;1.10;;;17.50;51.00;;;;;;5051617;28;20053;-41
2022/12/06 03:36:06;;;;;;;1.85;1.10;;;17.40;50.90;;;;;;5051852;28;20049;-44
2022/12/06 03:38:35;;;;;;;1.50;0.93;;;17.40;50.90;;;;;;5051253;28;20485;-44
2022/12/06 03:41:03;;;;;;;1.02;0.90;;;17.40;50.90;;;;;;5051627;28;20055;-44
2022/12/06 03:43:30;;;;;;;1.48;0.90;;;17.40;50.90;;;;;;5051547;28;20052;-43
2022/12/06 03:45:59;;;;;;;1.13;0.93;;;17.40;50.90;;;;;;5051651;28;20132;-44
2022/12/06 03:48:27;;;;;;;0.90;0.82;;;17.40;50.90;;;;;;5050336;28;20053;-44
2022/12/06 03:50:56;;;;;;;1.55;0.93;;;17.40;51.00;;;;;;5051321;28;20501;-44
2022/12/06 03:53:24;;;;;;;1.20;0.85;;;17.40;51.00;;;;;;5051366;28;20052;-44
2022/12/06 03:55:50;;;;;;;1.58;0.90;;;17.30;50.90;;;;;;5051416;28;20048;-43
2022/12/06 03:58:17;;;;;;;1.35;0.90;;;17.30;50.90;;;;;;5051165;28;20477;-43
2022/12/06 04:00:44;;;;;;;0.98;0.88;;;17.30;51.00;;;;;;5051692;28;20051;-44
2022/12/06 04:03:10;;;;;;;1.65;1.00;;;17.30;51.00;;;;;;5053286;28;20508;-44
2022/12/06 04:05:37;;;;;;;0.80;0.80;;;17.30;51.00;;;;;;5055328;28;20055;-43
2022/12/06 04:08:04;;;;;;;1.67;0.98;;;17.30;51.00;;;;;;5055393;28;20051;-43
2022/12/06 04:10:32;;;;;;;0.80;0.80;;;17.30;51.00;;;;;;5055072;28;20048;-44
2022/12/06 04:13:02;;;;;;;2.00;0.90;;;17.30;51.00;;;;;;5054944;28;20379;-44
2022/12/06 04:15:29;;;;;;;1.60;1.00;;;17.30;51.10;;;;;;5055098;28;20136;-46
2022/12/06 04:18:12;;;;;;;1.23;0.80;;;17.20;51.10;;;;;;5054988;28;20052;-42
2022/12/06 04:23:28;;;;;;;1.00;0.90;;;17.20;51.10;;;;;;5054213;28;20040;-44
2022/12/06 04:25:56;;;;;;;1.02;0.93;;;17.20;51.20;;;;;;5051155;28;20486;-44
2022/12/06 04:39:20;;;;;;;0.80;0.80;;;17.10;51.30;;;;;;5055302;28;20045;-44
2022/12/06 04:44:32;;;;;;;0.82;0.70;;;17.10;51.40;;;;;;5054380;28;20053;-42
2022/12/06 04:46:59;;;;;;;1.58;1.00;;;17.10;51.40;;;;;;5054522;28;20528;-43
2022/12/06 04:49:26;;;;;;;1.85;0.80;;;17.10;51.40;;;;;;5054985;28;20053;-43
2022/12/06 04:51:53;;;;;;;1.92;0.90;;;17.00;51.30;;;;;;5054333;28;20049;-43
2022/12/06 04:54:19;;;;;;;0.80;0.80;;;17.00;51.40;;;;;;5054370;28;20384;-43
2022/12/06 04:56:48;;;;;;;1.00;0.80;;;17.10;51.50;;;;;;5054565;28;20502;-44
2022/12/06 04:59:14;;;;;;;0.73;0.70;;;17.00;51.50;;;;;;5054824;28;20401;-44
2022/12/06 05:01:41;;;;;;;0.90;0.80;;;17.00;51.50;;;;;;5054879;28;20049;-44
2022/12/06 05:04:08;;;;;;;0.63;0.63;;;17.00;51.50;;;;;;5054405;28;20048;-43
2022/12/06 05:06:34;;;;;;;1.48;0.82;;;17.00;51.50;;;;;;5054686;28;20048;-44
2022/12/06 05:09:02;;;;;;;1.20;0.77;;;17.00;51.50;;;;;;5054474;28;20498;-42
2022/12/06 05:11:28;;;;;;;1.25;1.10;;;17.00;51.50;;;;;;5054645;28;20474;-44
2022/12/06 05:13:56;;;;;;;0.70;0.70;;;17.00;51.60;;;;;;5053979;28;20128;-44
2022/12/06 05:16:23;;;;;;;0.70;0.70;;;17.00;51.60;;;;;;5054325;28;20820;-44
2022/12/06 05:18:50;;;;;;;1.13;0.90;;;17.00;52.20;;;;;;5054623;28;20052;-42
2022/12/06 05:21:18;;;;;;;1.02;0.70;;;17.00;51.60;;;;;;5054281;28;20041;-43
2022/12/06 05:23:44;;;;;;;0.70;0.70;;;17.00;51.60;;;;;;5053902;28;20049;-44
2022/12/06 05:26:12;;;;;;;0.88;0.80;;;17.00;51.60;;;;;;5054545;28;20049;-44
2022/12/06 05:28:39;;;;;;;1.88;0.90;;;17.00;51.70;;;;;;5054100;28;20455;-44
2022/12/06 05:31:07;;;;;;;1.48;0.95;;;17.00;51.70;;;;;;5054053;28;20489;-44
2022/12/06 05:33:33;;;;;;;1.83;0.80;;;16.90;51.70;;;;;;5053879;28;20053;-44
2022/12/06 05:36:05;;;;;;;0.70;0.70;;;16.90;51.70;;;;;;5054145;28;20416;-44
2022/12/06 05:38:32;;;;;;;0.90;0.70;;;16.90;51.70;;;;;;5053964;28;20055;-44
2022/12/06 05:40:59;;;;;;;1.27;1.00;;;16.90;51.70;;;;;;5053963;28;20128;-44
2022/12/06 05:43:26;;;;;;;0.75;0.70;;;16.90;51.70;;;;;;5053745;28;20494;-44
2022/12/06 05:45:53;;;;;;;1.63;0.90;;;16.90;51.80;;;;;;5053821;28;20053;-43
2022/12/06 05:48:21;;;;;;;1.52;1.00;;;16.90;51.80;;;;;;5053918;28;20059;-44
2022/12/06 05:50:48;;;;;;;0.60;0.60;;;16.90;51.80;;;;;;5053643;28;20055;-44
2022/12/06 05:53:14;;;;;;;2.03;0.73;;;16.90;51.80;;;;;;5053549;28;20056;-43
2022/12/06 05:55:41;;;;;;;1.48;0.85;;;16.90;51.80;;;;;;5053625;28;20045;-44
2022/12/06 05:58:08;;;;;;;0.98;0.70;;;16.90;51.80;;;;;;5052362;28;20059;-44
2022/12/06 06:00:35;;;;;;;0.73;0.60;;;16.90;51.90;;;;;;5053518;28;20045;-43
2022/12/06 06:03:02;;;;;;;0.88;0.70;;;16.90;51.90;;;;;;5053473;28;20055;-43
2022/12/06 06:05:30;;;;;;;0.73;0.73;;;16.90;51.90;;;;;;5053628;28;20045;-44
2022/12/06 06:07:56;;;;;;;1.08;0.80;;;16.90;51.90;;;;;;5053369;28;20655;-43
2022/12/06 06:10:23;;;;;;;0.70;0.70;;;16.90;51.90;;;;;;5053261;28;20063;-44
2022/12/06 06:12:50;;;;;;;0.68;0.65;;;16.90;51.90;;;;;;5053449;28;20059;-44
2022/12/06 06:15:17;;;;;;;1.17;0.70;;;16.90;51.90;;;;;;5053551;28;20045;-44
2022/12/06 06:17:44;;;;;;;0.52;0.52;;;17.00;51.90;;;;;;5053186;28;20044;-44
2022/12/06 06:20:12;;;;;;;0.85;0.80;;;17.00;51.90;;;;;;5051942;28;20077;-44
2022/12/06 06:22:40;;;;;;;0.60;0.57;;;17.00;51.90;;;;;;5052899;28;20602;-44
2022/12/06 06:25:08;;;;;;;0.50;0.50;;;17.00;51.90;;;;;;5052533;28;20041;-44
2022/12/06 06:27:36;;;;;;;0.75;0.60;;;17.10;51.90;;;;;;5053124;28;20049;-44
2022/12/06 06:30:03;;;;;;;0.70;0.60;;;17.10;51.90;;;;;;5052915;28;20045;-44
2022/12/06 06:32:29;;;;;;;0.60;0.60;;;17.10;51.90;;;;;;5052654;28;20045;-43
2022/12/06 06:34:56;;;;;;;0.65;0.57;;;17.10;51.80;;;;;;5053151;28;20071;-44
2022/12/06 06:37:23;;;;;;;1.17;0.70;;;17.20;51.90;;;;;;5052975;28;20057;-44
2022/12/06 06:39:51;;;;;;;0.90;0.70;;;17.10;51.80;;;;;;5052915;28;20045;-44
2022/12/06 06:42:18;;;;;;;0.88;0.70;;;17.20;51.80;;;;;;5052579;28;20510;-44
2022/12/06 06:44:44;;;;;;;0.63;0.63;;;17.20;51.80;;;;;;5052366;28;20098;-44
2022/12/06 06:47:11;;;;;;;0.52;0.50;;;17.20;51.70;;;;;;5052941;28;20053;-44
2022/12/06 06:49:38;;;;;;;0.52;0.52;;;17.30;51.80;;;;;;5052648;28;20049;-44
2022/12/06 06:52:04;;;;;;;0.63;0.50;;;17.30;51.70;;;;;;5052342;28;20047;-44
2022/12/06 06:54:31;;;;;;;0.82;0.70;;;17.30;51.70;;;;;;5052098;28;20409;-44
2022/12/06 06:57:01;;;;;;;0.60;0.60;;;17.30;51.70;;;;;;5052864;28;20057;-44
2022/12/06 06:59:27;;;;;;;0.50;0.50;;;17.30;51.60;;;;;;5052773;28;20053;-44
2022/12/06 07:01:54;;;;;;;0.77;0.75;;;17.30;51.60;;;;;;5052403;28;20045;-44
2022/12/06 07:04:21;;;;;;;0.70;0.70;;;17.40;51.70;;;;;;5052208;28;20052;-44
2022/12/06 07:06:48;;;;;;;0.40;0.40;;;17.40;51.60;;;;;;5051872;28;20076;-44
2022/12/06 07:09:14;;;;;;;0.52;0.52;;;17.40;51.60;;;;;;5052341;28;20041;-44
2022/12/06 07:11:41;;;;;;;0.70;0.70;;;17.40;51.50;;;;;;5052494;28;20155;-44
2022/12/06 07:14:09;;;;;;;0.45;0.45;;;17.40;51.50;;;;;;5051549;28;20045;-44
2022/12/06 07:16:36;;;;;;;0.50;0.50;;;17.40;51.50;;;;;;5048910;28;20040;-44
2022/12/06 07:19:03;;;;;;;0.82;0.68;;;17.50;51.50;;;;;;5052270;28;20212;-44
2022/12/06 07:21:29;;;;;;;0.57;0.57;;;17.50;51.50;;;;;;5051834;28;20063;-43
2022/12/06 07:23:56;;;;;;;0.57;0.50;;;17.50;51.50;;;;;;5051815;28;20059;-44
2022/12/06 07:26:23;;;;;;;0.68;0.65;;;17.60;51.50;;;;;;5051887;28;20075;-44
2022/12/06 07:28:50;;;;;;;0.57;0.57;;;17.60;51.50;;;;;;5051814;28;20051;-44
2022/12/06 07:31:19;;;;;;;1.05;0.70;;;17.60;51.50;;;;;;5052037;28;20049;-44
2022/12/06 07:33:46;;;;;;;0.65;0.60;;;17.70;51.60;;;;;;5051413;28;20408;-44
2022/12/06 07:36:13;;;;;;;0.43;0.43;;;17.70;51.50;;;;;;5050979;28;20041;-44
2022/12/06 07:38:40;;;;;;;0.93;0.70;;;17.80;51.60;;;;;;5050667;28;20128;-44
2022/12/06 07:44:59;;;;;;;1.17;0.63;;;17.80;51.60;;;;;;5051302;28;20045;-44
2022/12/06 07:46:41;;;;;;;1.08;0.63;;;18.00;51.60;;;;;;5049848;28;20505;-42
2022/12/06 07:49:08;;;;;;;2.20;0.80;;;18.00;51.60;;;;;;5050726;28;20055;-43
2022/12/06 07:51:35;;;;;;;1.15;0.73;;;18.10;51.80;;;;;;5051407;28;20051;-44
2022/12/06 07:54:01;;;;;;;0.85;0.70;;;18.20;51.90;;;;;;5051581;28;20389;-44
2022/12/06 07:56:28;;;;;;;0.65;0.65;;;18.30;52.00;;;;;;5051199;28;20045;-44
2022/12/06 07:58:55;;;;;;;1.00;0.63;;;18.30;51.90;;;;;;5049352;28;20416;-44
2022/12/06 08:01:22;;;;;;;0.60;0.60;;;18.40;51.90;;;;;;5051024;28;20047;-44
2022/12/06 08:03:50;;;;;;;2.38;1.13;;;18.50;51.80;;;;;;5051304;28;20634;-44
2022/12/06 08:06:17;;;;;;;1.25;0.70;;;18.60;51.90;;;;;;5051105;28;20401;-44
2022/12/06 08:08:43;;;;;;;1.33;0.68;;;18.70;51.80;;;;;;5051809;28;20059;-44
2022/12/06 08:11:10;;;;;;;0.90;0.65;;;18.80;51.80;;;;;;5051367;28;20120;-45
2022/12/06 08:13:37;;;;;;;0.75;0.70;;;18.90;51.70;;;;;;5051141;28;20052;-44
2022/12/06 08:16:05;;;;;;;0.90;0.68;;;18.90;51.70;;;;;;5051575;28;20055;-45
2022/12/06 08:18:32;;;;;;;1.05;0.70;;;19.00;51.60;;;;;;5051386;28;20053;-45
2022/12/06 08:21:00;;;;;;;0.90;0.70;;;19.10;51.40;;;;;;5051445;28;20131;-44
2022/12/06 08:23:27;;;;;;;0.63;0.57;;;19.20;51.30;;;;;;5049581;28;20493;-44
2022/12/06 08:25:57;;;;;;;1.08;0.75;;;19.30;51.30;;;;;;5048244;28;20048;-45
2022/12/06 08:28:24;;;;;;;1.55;0.75;;;19.40;51.10;;;;;;5050719;28;20053;-45
2022/12/06 08:30:51;;;;;;;14.38;1.67;;;19.50;51.00;;;;;;5051409;28;20048;-45
2022/12/06 08:33:17;;;;;;;4.40;0.90;;;19.60;50.90;;;;;;5049983;28;20047;-45
2022/12/06 08:35:44;;;;;;;1.98;0.90;;;19.60;50.70;;;;;;5050100;28;20485;-45
2022/12/06 08:38:12;;;;;;;5.57;1.00;;;19.70;50.60;;;;;;5051177;28;20053;-45
2022/12/06 08:40:39;;;;;;;2.40;1.05;;;19.80;50.50;;;;;;5050027;28;20100;-45
2022/12/06 08:43:05;;;;;;;5.15;1.38;;;19.80;50.40;;;;;;5052208;28;20415;-44
2022/12/06 08:45:33;;;;;;;1.08;0.65;;;19.90;50.40;;;;;;5051403;28;20060;-45
2022/12/06 08:48:00;;;;;;;0.57;0.57;;;19.90;50.30;;;;;;5050664;28;20400;-45
2022/12/06 08:50:26;;;;;;;2.90;0.90;;;20.00;50.20;;;;;;5052660;28;20049;-43
2022/12/06 08:52:53;;;;;;;3.03;1.00;;;20.10;50.20;;;;;;5053773;28;20406;-45
2022/12/06 08:55:21;;;;;;;1.70;1.00;;;20.10;50.20;;;;;;5053942;28;20037;-45
2022/12/06 08:57:48;;;;;;;2.65;0.90;;;20.10;50.10;;;;;;5052476;28;20048;-44
2022/12/06 09:00:16;;;;;;;1.42;0.80;;;20.20;50.10;;;;;;5053637;28;20048;-44
2022/12/06 09:02:42;;;;;;;1.58;0.90;;;20.20;50.00;;;;;;5053992;28;20080;-45
2022/12/06 09:05:09;;;;;;;2.88;0.80;;;20.30;50.10;;;;;;5054172;28;20041;-45
2022/12/06 09:07:36;;;;;;;3.33;0.80;;;20.30;49.90;;;;;;5053701;28;20053;-45
2022/12/06 09:10:04;;;;;;;1.02;0.63;;;20.30;49.90;;;;;;5054582;28;20045;-44
2022/12/06 09:12:32;;;;;;;1.08;0.70;;;20.40;49.90;;;;;;5052752;28;20053;-45
2022/12/06 09:14:59;;;;;;;1.70;0.70;;;20.40;49.70;;;;;;5054199;28;20049;-45
2022/12/06 09:17:25;;;;;;;2.40;0.80;;;20.40;49.60;;;;;;5054782;28;20075;-45
2022/12/06 09:19:52;;;;;;;3.95;1.10;;;20.40;49.50;;;;;;5053885;28;20063;-45
2022/12/06 09:22:19;;;;;;;1.75;0.90;;;20.50;49.50;;;;;;5053040;28;20516;-46
2022/12/06 09:24:45;;;;;;;1.65;0.90;;;20.50;49.40;;;;;;5054168;28;20512;-45
2022/12/06 09:27:12;;;;;;;0.93;0.80;;;20.50;49.30;;;;;;5054231;28;20051;-45
2022/12/06 09:29:40;;;;;;;0.63;0.63;;;20.60;49.30;;;;;;5053751;28;20044;-44
2022/12/06 09:32:07;;;;;;;1.58;0.82;;;20.60;49.20;;;;;;5053381;28;20416;-44
2022/12/06 09:34:33;;;;;;;1.30;0.90;;;20.60;49.10;;;;;;5052581;28;20053;-44
2022/12/06 09:37:02;;;;;;;0.77;0.77;;;20.70;49.70;;;;;;5053294;28;20052;-46
2022/12/06 09:39:31;;;;;;;2.22;0.70;;;20.70;49.00;;;;;;5052175;28;20059;-45
2022/12/06 09:42:14;;;;;;;1.45;0.80;;;20.70;49.00;;;;;;5053097;28;20512;-45
2022/12/06 09:44:50;;;;;;;1.42;0.80;;;20.80;48.90;;;;;;5053458;28;20167;-45
2022/12/06 09:47:21;;;;;;;1.55;0.80;;;20.80;48.90;;;;;;5053032;28;20043;-45
2022/12/06 09:49:51;;;;;;;0.75;0.70;;;20.80;48.80;;;;;;5053104;28;20059;-45
2022/12/06 09:52:26;;;;;;;2.35;0.90;;;20.80;48.80;;;;;;5053092;28;20047;-45
2022/12/06 09:55:12;;;;;;;1.77;0.75;;;20.80;48.70;;;;;;5053641;28;20072;-45
2022/12/06 09:57:41;;;;;;;0.68;0.65;;;20.90;48.80;;;;;;5053291;28;20124;-45
2022/12/06 10:00:12;;;;;;;0.70;0.70;;;20.90;49.20;;;;;;5051868;28;20071;-44
2022/12/06 10:03:11;;;;;;;1.00;0.80;;;20.90;48.50;;;;;;5052023;28;20041;-46
2022/12/06 10:05:46;;;;;;;1.30;1.00;;;20.90;48.70;;;;;;5041173;28;20059;-45
2022/12/06 10:08:20;;;;;;;0.80;0.70;;;20.90;48.50;;;;;;5053193;28;20098;-46
2022/12/06 10:10:53;;;;;;;0.88;0.80;;;21.00;48.60;;;;;;5059819;28;20057;-45
2022/12/06 10:13:23;;;;;;;1.00;0.90;;;20.90;48.50;;;;;;5050432;28;20049;-44
2022/12/06 10:15:56;;;;;;;1.08;0.90;;;21.00;48.50;;;;;;5051988;28;20055;-46
2022/12/06 10:18:32;;;;;;;1.38;0.85;;;21.00;48.40;;;;;;5052035;28;20045;-45
2022/12/06 10:21:01;;;;;;;0.88;0.80;;;21.00;48.40;;;;;;5052408;28;20051;-44
2022/12/06 10:23:35;;;;;;;1.95;0.90;;;21.00;48.40;;;;;;5052282;28;20048;-46
2022/12/06 10:26:07;;;;;;;1.75;0.80;;;21.10;48.40;;;;;;5052304;28;20045;-45
2022/12/06 10:28:38;;;;;;;1.02;0.80;;;21.10;48.30;;;;;;5052423;28;20049;-45
2022/12/06 10:31:12;;;;;;;2.90;0.90;;;21.10;48.30;;;;;;5052779;28;20052;-45
2022/12/06 10:33:42;;;;;;;1.40;0.85;;;21.10;48.20;;;;;;5052333;28;20053;-44
2022/12/06 10:36:09;;;;;;;1.38;0.90;;;21.10;48.20;;;;;;5051020;28;20044;-44
2022/12/06 10:38:39;;;;;;;2.13;0.73;;;21.10;48.20;;;;;;5051823;28;20450;-45
2022/12/06 10:41:10;;;;;;;3.20;0.95;;;21.20;48.10;;;;;;5052035;28;20053;-45
2022/12/06 10:43:41;;;;;;;2.30;0.98;;;21.20;48.10;;;;;;5051461;28;20052;-45
2022/12/06 10:48:59;;;;;;;1.42;0.95;;;21.20;48.00;;;;;;5052681;28;20136;-44
2022/12/06 10:51:31;;;;;;;3.00;0.82;;;21.30;48.10;;;;;;5052163;28;20049;-45
2022/12/06 10:54:01;;;;;;;2.15;0.82;;;21.30;48.00;;;;;;5050402;28;20084;-45
2022/12/06 10:56:29;;;;;;;1.58;0.95;;;21.30;48.00;;;;;;5052478;28;20037;-43
2022/12/06 10:58:58;;;;;;;2.10;0.93;;;21.30;48.00;;;;;;5051559;28;20515;-45
2022/12/06 11:01:27;;;;;;;1.40;0.80;;;21.30;48.00;;;;;;5050758;28;20048;-45
2022/12/06 11:03:57;;;;;;;0.85;0.70;;;21.30;47.90;;;;;;5051437;28;20045;-45
2022/12/06 11:06:27;;;;;;;2.30;0.90;;;21.30;47.90;;;;;;5052765;28;20047;-44
2022/12/06 11:08:55;;;;;;;1.05;0.85;;;21.40;47.90;;;;;;5052841;28;20055;-45
2022/12/06 11:11:24;;;;;;;2.17;0.90;;;21.40;47.90;;;;;;5051418;28;20055;-46
2022/12/06 11:13:52;;;;;;;1.73;0.93;;;21.40;47.90;;;;;;5051052;28;20052;-45
2022/12/06 11:16:21;;;;;;;1.02;0.70;;;21.40;47.90;;;;;;5052107;28;20044;-45
2022/12/06 11:18:49;;;;;;;1.33;0.63;;;21.40;47.80;;;;;;5051494;28;20639;-44
2022/12/06 11:21:23;;;;;;;1.70;0.90;;;21.40;47.80;;;;;;5051045;28;20049;-45
2022/12/06 11:23:52;;;;;;;1.85;0.90;;;21.50;47.80;;;;;;5051732;28;20500;-43
2022/12/06 11:26:23;;;;;;;1.40;0.80;;;21.50;47.80;;;;;;5050440;28;20048;-41
2022/12/06 11:28:54;;;;;;;0.95;0.70;;;21.50;47.80;;;;;;5052518;28;20049;-43
2022/12/06 11:31:25;;;;;;;1.23;0.80;;;21.50;47.70;;;;;;5051978;28;20087;-43
2022/12/06 11:33:53;;;;;;;3.33;0.80;;;21.50;47.70;;;;;;5051296;28;20045;-43
2022/12/06 11:36:20;;;;;;;1.08;0.80;;;21.50;47.60;;;;;;5052080;28;20041;-43
2022/12/06 11:38:46;;;;;;;1.05;0.80;;;21.50;47.60;;;;;;5052485;28;20130;-42
2022/12/06 11:41:17;;;;;;;1.85;0.85;;;21.60;47.60;;;;;;5051751;28;20041;-43
2022/12/06 11:43:44;;;;;;;1.42;0.85;;;21.60;47.60;;;;;;5048866;28;20049;-43
2022/12/06 11:46:11;;;;;;;1.67;1.00;;;21.60;47.60;;;;;;5050296;28;20040;-43
2022/12/06 11:48:38;;;;;;;1.20;0.90;;;21.60;47.50;;;;;;5050499;28;20048;-43
2022/12/06 11:51:08;;;;;;;1.67;0.90;;;21.60;47.50;;;;;;5049634;28;20513;-42
2022/12/06 11:53:36;;;;;;;3.53;0.90;;;21.60;47.40;;;;;;5049294;28;20529;-41
2022/12/06 11:56:06;;;;;;;1.90;0.90;;;21.60;47.30;;;;;;5050694;28;20058;-43
2022/12/06 11:58:34;;;;;;;1.98;0.80;;;21.60;47.60;;;;;;5051076;28;20049;-43
2022/12/06 12:01:01;;;;;;;1.60;0.80;;;21.60;47.30;;;;;;5050658;28;20056;-43
2022/12/06 12:03:29;;;;;;;2.47;0.88;;;21.60;47.30;;;;;;5051144;28;20526;-43
2022/12/06 12:06:19;;;;;;;1.45;0.90;;;21.60;47.30;;;;;;5050137;28;20469;-42
2022/12/06 12:08:57;;;;;;;1.55;0.75;;;21.60;47.40;;;;;;5048206;28;20136;-43
2022/12/06 12:11:25;;;;;;;2.22;0.90;;;21.50;47.30;;;;;;5051131;28;20494;-43
2022/12/06 12:13:52;;;;;;;1.13;0.80;;;21.50;47.30;;;;;;5050160;28;20052;-43
2022/12/06 12:16:20;;;;;;;3.90;0.90;;;21.50;47.20;;;;;;5051332;28;20136;-43
2022/12/06 12:18:55;;;;;;;1.75;0.93;;;21.50;47.30;;;;;;5050804;28;21032;-43
2022/12/06 12:21:40;;;;;;;3.17;1.13;;;21.40;47.20;;;;;;5051073;28;20055;-42
2022/12/06 12:24:25;;;;;;;2.38;0.88;;;21.40;47.40;;;;;;5052122;28;20049;-45
2022/12/06 12:26:52;;;;;;;1.52;0.82;;;21.40;47.30;;;;;;5054298;28;20485;-45
2022/12/06 12:29:19;;;;;;;1.77;1.00;;;21.30;47.30;;;;;;5054047;28;20048;-45
2022/12/06 12:31:51;;;;;;;1.23;0.73;;;21.30;47.90;;;;;;5053949;28;20053;-44
2022/12/06 12:34:19;;;;;;;1.73;0.90;;;21.20;47.40;;;;;;5053983;28;20068;-45
2022/12/06 12:36:48;;;;;;;1.25;0.70;;;21.20;47.60;;;;;;5053936;28;20508;-45
2022/12/06 12:39:26;;;;;;;1.52;0.90;;;21.20;47.70;;;;;;5053830;28;20087;-45
2022/12/06 12:41:53;;;;;;;2.38;0.85;;;21.10;47.60;;;;;;5053938;28;20520;-45
2022/12/06 12:44:21;;;;;;;3.08;1.00;;;21.10;47.60;;;;;;5054407;28;20052;-45
2022/12/06 12:46:50;;;;;;;1.13;0.95;;;21.00;47.70;;;;;;5055276;28;20049;-45
2022/12/06 12:49:26;;;;;;;1.60;0.90;;;21.10;47.80;;;;;;5054456;28;20486;-45
2022/12/06 12:51:55;;;;;;;1.52;0.93;;;21.00;47.90;;;;;;5054804;28;20048;-45
2022/12/06 12:54:24;;;;;;;0.75;0.68;;;21.00;48.00;;;;;;5053726;28;20064;-45
2022/12/06 12:56:51;;;;;;;4.47;0.80;;;20.90;48.00;;;;;;5053697;28;20059;-45
2022/12/06 12:59:19;;;;;;;1.38;0.90;;;20.80;48.00;;;;;;5054616;28;20052;-45
2022/12/06 13:01:48;;;;;;;1.75;0.80;;;20.80;48.10;;;;;;5054211;28;20053;-45
2022/12/06 13:04:20;;;;;;;2.15;1.00;;;20.70;48.10;;;;;;5054317;28;20055;-46
2022/12/06 13:06:49;;;;;;;1.08;0.80;;;20.70;48.10;;;;;;5055438;28;20290;-46
2022/12/06 13:09:21;;;;;;;1.75;0.90;;;20.70;48.30;;;;;;5054853;28;20041;-45
2022/12/06 13:11:51;;;;;;;1.52;1.00;;;20.60;48.20;;;;;;5055451;28;20037;-45
2022/12/06 13:14:19;;;;;;;2.17;1.00;;;20.60;48.30;;;;;;5053301;28;20060;-45
2022/12/06 13:16:45;;;;;;;1.35;0.90;;;20.50;48.30;;;;;;5055594;28;20067;-45
2022/12/06 13:19:14;;;;;;;1.63;0.80;;;20.70;48.40;;;;;;5054916;28;20124;-45